sensor_id;sensor_type;location;lat;lon;timestamp;temperature;humidity
8420;DHT22;4247;48.550;8.822;2023-06-01T00:00:50;16.00;79.70
8420;DHT22;4247;48.550;8.822;2023-06-01T00:03:21;15.90;80.00
8420;DHT22;4247;48.550;8.822;2023-06-01T00:05:49;15.90;79.60
8420;DHT22;4247;48.550;8.822;2023-06-01T00:08:16;15.90;79.20
8420;DHT22;4247;48.550;8.822;2023-06-01T00:10:43;15.90;80.20
8420;DHT22;4247;48.550;8.822;2023-06-01T00:13:09;15.90;80.40
8420;DHT22;4247;48.550;8.822;2023-06-01T00:15:36;15.80;80.40
8420;DHT22;4247;48.550;8.822;2023-06-01T00:18:03;15.80;80.60
8420;DHT22;4247;48.550;8.822;2023-06-01T00:20:31;15.80;80.30
8420;DHT22;4247;48.550;8.822;2023-06-01T00:22:59;15.80;80.60
8420;DHT22;4247;48.550;8.822;2023-06-01T00:25:26;15.70;80.70
8420;DHT22;4247;48.550;8.822;2023-06-01T00:27:52;15.70;81.00
8420;DHT22;4247;48.550;8.822;2023-06-01T00:30:19;15.70;80.60
8420;DHT22;4247;48.550;8.822;2023-06-01T00:32:46;15.70;80.40
8420;DHT22;4247;48.550;8.822;2023-06-01T00:35:13;15.70;80.70
8420;DHT22;4247;48.550;8.822;2023-06-01T00:37:39;15.60;80.50
8420;DHT22;4247;48.550;8.822;2023-06-01T00:40:08;15.60;81.80
8420;DHT22;4247;48.550;8.822;2023-06-01T00:42:35;15.60;81.40
8420;DHT22;4247;48.550;8.822;2023-06-01T00:45:02;15.50;81.70
8420;DHT22;4247;48.550;8.822;2023-06-01T00:47:29;15.50;82.40
8420;DHT22;4247;48.550;8.822;2023-06-01T00:49:56;15.40;82.00
8420;DHT22;4247;48.550;8.822;2023-06-01T00:52:23;15.40;83.00
8420;DHT22;4247;48.550;8.822;2023-06-01T00:54:50;15.40;83.30
8420;DHT22;4247;48.550;8.822;2023-06-01T00:57:18;15.30;82.90
8420;DHT22;4247;48.550;8.822;2023-06-01T00:59:46;15.30;83.20
8420;DHT22;4247;48.550;8.822;2023-06-01T01:02:13;15.30;83.20
8420;DHT22;4247;48.550;8.822;2023-06-01T01:04:44;15.30;83.10
8420;DHT22;4247;48.550;8.822;2023-06-01T01:07:15;15.30;83.20
8420;DHT22;4247;48.550;8.822;2023-06-01T01:09:55;15.30;83.10
8420;DHT22;4247;48.550;8.822;2023-06-01T01:12:29;15.30;83.10
8420;DHT22;4247;48.550;8.822;2023-06-01T01:15:01;15.30;82.90
8420;DHT22;4247;48.550;8.822;2023-06-01T01:17:39;15.30;83.30
8420;DHT22;4247;48.550;8.822;2023-06-01T01:20:12;15.20;83.40
8420;DHT22;4247;48.550;8.822;2023-06-01T01:28:37;15.20;83.30
8420;DHT22;4247;48.550;8.822;2023-06-01T01:31:09;15.10;83.30
8420;DHT22;4247;48.550;8.822;2023-06-01T01:33:38;15.10;83.90
8420;DHT22;4247;48.550;8.822;2023-06-01T01:36:07;15.10;83.30
8420;DHT22;4247;48.550;8.822;2023-06-01T01:38:35;15.10;83.40
8420;DHT22;4247;48.550;8.822;2023-06-01T01:41:02;15.10;84.00
8420;DHT22;4247;48.550;8.822;2023-06-01T01:43:30;15.00;84.00
8420;DHT22;4247;48.550;8.822;2023-06-01T01:46:06;15.00;83.50
8420;DHT22;4247;48.550;8.822;2023-06-01T01:48:38;15.00;83.00
8420;DHT22;4247;48.550;8.822;2023-06-01T01:51:10;15.00;83.50
8420;DHT22;4247;48.550;8.822;2023-06-01T01:53:39;14.90;84.30
8420;DHT22;4247;48.550;8.822;2023-06-01T01:56:08;14.90;84.00
8420;DHT22;4247;48.550;8.822;2023-06-01T01:58:34;14.90;83.70
8420;DHT22;4247;48.550;8.822;2023-06-01T02:01:03;14.80;84.30
8420;DHT22;4247;48.550;8.822;2023-06-01T02:03:30;14.80;84.60
8420;DHT22;4247;48.550;8.822;2023-06-01T02:05:57;14.70;84.10
8420;DHT22;4247;48.550;8.822;2023-06-01T02:08:24;14.70;84.80
8420;DHT22;4247;48.550;8.822;2023-06-01T02:10:50;14.70;83.60
8420;DHT22;4247;48.550;8.822;2023-06-01T02:13:17;14.70;83.80
8420;DHT22;4247;48.550;8.822;2023-06-01T02:15:44;14.70;84.40
8420;DHT22;4247;48.550;8.822;2023-06-01T02:18:12;14.70;84.10
8420;DHT22;4247;48.550;8.822;2023-06-01T02:20:43;14.70;83.90
8420;DHT22;4247;48.550;8.822;2023-06-01T02:23:10;14.70;84.90
8420;DHT22;4247;48.550;8.822;2023-06-01T02:25:37;14.60;85.10
8420;DHT22;4247;48.550;8.822;2023-06-01T02:28:03;14.60;86.90
8420;DHT22;4247;48.550;8.822;2023-06-01T02:30:32;14.60;87.60
8420;DHT22;4247;48.550;8.822;2023-06-01T02:32:59;14.50;87.60
8420;DHT22;4247;48.550;8.822;2023-06-01T02:35:27;14.40;89.50
8420;DHT22;4247;48.550;8.822;2023-06-01T02:37:53;14.40;89.20
8420;DHT22;4247;48.550;8.822;2023-06-01T02:40:20;14.30;89.20
8420;DHT22;4247;48.550;8.822;2023-06-01T02:42:47;14.30;88.20
8420;DHT22;4247;48.550;8.822;2023-06-01T02:45:14;14.20;89.30
8420;DHT22;4247;48.550;8.822;2023-06-01T02:47:40;14.20;89.60
8420;DHT22;4247;48.550;8.822;2023-06-01T02:50:09;14.20;88.80
8420;DHT22;4247;48.550;8.822;2023-06-01T02:52:38;14.20;88.20
8420;DHT22;4247;48.550;8.822;2023-06-01T02:55:05;14.20;87.40
8420;DHT22;4247;48.550;8.822;2023-06-01T02:57:32;14.20;87.80
8420;DHT22;4247;48.550;8.822;2023-06-01T02:59:59;14.10;86.90
8420;DHT22;4247;48.550;8.822;2023-06-01T03:02:26;14.10;87.40
8420;DHT22;4247;48.550;8.822;2023-06-01T03:04:53;14.10;89.30
8420;DHT22;4247;48.550;8.822;2023-06-01T03:07:19;14.10;89.60
8420;DHT22;4247;48.550;8.822;2023-06-01T03:09:47;14.00;90.50
8420;DHT22;4247;48.550;8.822;2023-06-01T03:12:14;14.00;90.10
8420;DHT22;4247;48.550;8.822;2023-06-01T03:14:41;14.00;90.70
8420;DHT22;4247;48.550;8.822;2023-06-01T03:17:07;13.90;90.80
8420;DHT22;4247;48.550;8.822;2023-06-01T03:19:34;13.90;91.10
8420;DHT22;4247;48.550;8.822;2023-06-01T03:22:01;13.90;91.20
8420;DHT22;4247;48.550;8.822;2023-06-01T03:24:28;13.80;91.50
8420;DHT22;4247;48.550;8.822;2023-06-01T03:26:56;13.80;91.30
8420;DHT22;4247;48.550;8.822;2023-06-01T03:29:22;13.80;91.40
8420;DHT22;4247;48.550;8.822;2023-06-01T03:31:49;13.80;92.20
8420;DHT22;4247;48.550;8.822;2023-06-01T03:34:16;13.70;91.10
8420;DHT22;4247;48.550;8.822;2023-06-01T03:36:43;13.70;91.90
8420;DHT22;4247;48.550;8.822;2023-06-01T03:39:13;13.60;91.90
8420;DHT22;4247;48.550;8.822;2023-06-01T03:41:41;13.60;92.10
8420;DHT22;4247;48.550;8.822;2023-06-01T03:44:09;13.60;92.10
8420;DHT22;4247;48.550;8.822;2023-06-01T03:46:36;13.60;91.90
8420;DHT22;4247;48.550;8.822;2023-06-01T03:49:03;13.60;92.10
8420;DHT22;4247;48.550;8.822;2023-06-01T03:51:30;13.60;92.80
8420;DHT22;4247;48.550;8.822;2023-06-01T03:53:57;13.60;92.80
8420;DHT22;4247;48.550;8.822;2023-06-01T03:56:23;13.60;92.90
8420;DHT22;4247;48.550;8.822;2023-06-01T03:58:50;13.70;92.70
8420;DHT22;4247;48.550;8.822;2023-06-01T04:01:18;13.70;92.80
8420;DHT22;4247;48.550;8.822;2023-06-01T04:03:45;13.70;93.00
8420;DHT22;4247;48.550;8.822;2023-06-01T04:06:14;13.70;93.30
8420;DHT22;4247;48.550;8.822;2023-06-01T04:08:43;13.80;93.60
8420;DHT22;4247;48.550;8.822;2023-06-01T04:11:14;13.80;92.90
8420;DHT22;4247;48.550;8.822;2023-06-01T04:13:40;13.80;93.90
8420;DHT22;4247;48.550;8.822;2023-06-01T04:16:07;13.90;93.20
8420;DHT22;4247;48.550;8.822;2023-06-01T04:18:35;14.00;93.10
8420;DHT22;4247;48.550;8.822;2023-06-01T04:21:02;14.00;94.20
8420;DHT22;4247;48.550;8.822;2023-06-01T04:23:29;14.10;93.20
8420;DHT22;4247;48.550;8.822;2023-06-01T04:25:56;14.10;93.70
8420;DHT22;4247;48.550;8.822;2023-06-01T04:28:25;14.20;93.50
8420;DHT22;4247;48.550;8.822;2023-06-01T04:30:52;14.30;93.90
8420;DHT22;4247;48.550;8.822;2023-06-01T04:33:19;14.40;93.50
8420;DHT22;4247;48.550;8.822;2023-06-01T04:35:49;14.60;93.70
8420;DHT22;4247;48.550;8.822;2023-06-01T04:38:18;14.80;93.60
8420;DHT22;4247;48.550;8.822;2023-06-01T04:40:45;14.90;93.50
8420;DHT22;4247;48.550;8.822;2023-06-01T04:43:11;15.10;93.30
8420;DHT22;4247;48.550;8.822;2023-06-01T04:45:44;15.30;93.80
8420;DHT22;4247;48.550;8.822;2023-06-01T04:48:11;15.40;92.40
8420;DHT22;4247;48.550;8.822;2023-06-01T04:50:40;15.50;92.80
8420;DHT22;4247;48.550;8.822;2023-06-01T04:53:08;15.60;92.90
8420;DHT22;4247;48.550;8.822;2023-06-01T04:55:35;15.60;92.50
8420;DHT22;4247;48.550;8.822;2023-06-01T04:58:01;15.60;92.40
8420;DHT22;4247;48.550;8.822;2023-06-01T05:00:29;15.70;93.00
8420;DHT22;4247;48.550;8.822;2023-06-01T05:02:55;15.80;92.20
8420;DHT22;4247;48.550;8.822;2023-06-01T05:05:22;15.90;92.30
8420;DHT22;4247;48.550;8.822;2023-06-01T05:07:49;15.90;92.10
8420;DHT22;4247;48.550;8.822;2023-06-01T05:10:17;16.00;92.80
8420;DHT22;4247;48.550;8.822;2023-06-01T05:12:43;16.10;92.00
8420;DHT22;4247;48.550;8.822;2023-06-01T05:15:10;16.10;92.50
8420;DHT22;4247;48.550;8.822;2023-06-01T05:17:37;16.30;91.00
8420;DHT22;4247;48.550;8.822;2023-06-01T05:20:05;16.30;90.00
8420;DHT22;4247;48.550;8.822;2023-06-01T05:22:34;16.40;89.70
8420;DHT22;4247;48.550;8.822;2023-06-01T05:25:01;16.40;88.70
8420;DHT22;4247;48.550;8.822;2023-06-01T05:27:29;16.50;89.50
8420;DHT22;4247;48.550;8.822;2023-06-01T05:29:56;16.50;89.50
8420;DHT22;4247;48.550;8.822;2023-06-01T05:32:22;16.60;88.30
8420;DHT22;4247;48.550;8.822;2023-06-01T05:34:49;16.60;88.60
8420;DHT22;4247;48.550;8.822;2023-06-01T05:37:16;16.70;88.00
8420;DHT22;4247;48.550;8.822;2023-06-01T05:39:42;16.80;87.90
8420;DHT22;4247;48.550;8.822;2023-06-01T05:42:09;16.90;88.60
8420;DHT22;4247;48.550;8.822;2023-06-01T05:44:37;16.90;87.80
8420;DHT22;4247;48.550;8.822;2023-06-01T05:47:04;17.00;88.00
8420;DHT22;4247;48.550;8.822;2023-06-01T05:49:31;17.10;88.60
8420;DHT22;4247;48.550;8.822;2023-06-01T05:51:58;17.20;88.70
8420;DHT22;4247;48.550;8.822;2023-06-01T05:54:26;17.20;87.70
8420;DHT22;4247;48.550;8.822;2023-06-01T05:56:53;17.30;89.50
8420;DHT22;4247;48.550;8.822;2023-06-01T05:59:19;17.40;86.90
8420;DHT22;4247;48.550;8.822;2023-06-01T06:01:48;17.50;86.90
8420;DHT22;4247;48.550;8.822;2023-06-01T06:04:14;17.50;86.80
8420;DHT22;4247;48.550;8.822;2023-06-01T06:06:41;17.60;85.60
8420;DHT22;4247;48.550;8.822;2023-06-01T06:09:08;17.70;85.00
8420;DHT22;4247;48.550;8.822;2023-06-01T06:11:37;17.70;86.10
8420;DHT22;4247;48.550;8.822;2023-06-01T06:14:04;17.80;86.40
8420;DHT22;4247;48.550;8.822;2023-06-01T06:16:30;18.00;86.70
8420;DHT22;4247;48.550;8.822;2023-06-01T06:18:58;18.10;85.50
8420;DHT22;4247;48.550;8.822;2023-06-01T06:21:25;18.20;85.60
8420;DHT22;4247;48.550;8.822;2023-06-01T06:23:52;18.20;86.10
8420;DHT22;4247;48.550;8.822;2023-06-01T06:26:24;18.30;86.10
8420;DHT22;4247;48.550;8.822;2023-06-01T06:28:51;18.40;85.90
8420;DHT22;4247;48.550;8.822;2023-06-01T06:31:18;18.50;84.60
8420;DHT22;4247;48.550;8.822;2023-06-01T06:33:45;18.50;85.20
8420;DHT22;4247;48.550;8.822;2023-06-01T06:36:13;18.60;84.70
8420;DHT22;4247;48.550;8.822;2023-06-01T06:38:40;18.70;83.20
8420;DHT22;4247;48.550;8.822;2023-06-01T06:41:06;18.80;83.30
8420;DHT22;4247;48.550;8.822;2023-06-01T06:43:33;18.90;84.70
8420;DHT22;4247;48.550;8.822;2023-06-01T06:46:00;18.90;83.20
8420;DHT22;4247;48.550;8.822;2023-06-01T06:48:27;19.00;83.80
8420;DHT22;4247;48.550;8.822;2023-06-01T06:50:54;19.00;83.20
8420;DHT22;4247;48.550;8.822;2023-06-01T06:53:22;19.20;85.60
8420;DHT22;4247;48.550;8.822;2023-06-01T06:55:49;19.30;84.10
8420;DHT22;4247;48.550;8.822;2023-06-01T06:58:15;19.30;84.40
8420;DHT22;4247;48.550;8.822;2023-06-01T07:00:42;19.30;83.00
8420;DHT22;4247;48.550;8.822;2023-06-01T07:03:09;19.40;83.40
8420;DHT22;4247;48.550;8.822;2023-06-01T07:05:36;19.50;82.40
8420;DHT22;4247;48.550;8.822;2023-06-01T07:08:03;19.50;82.90
8420;DHT22;4247;48.550;8.822;2023-06-01T07:10:31;19.60;83.60
8420;DHT22;4247;48.550;8.822;2023-06-01T07:12:58;19.70;84.20
8420;DHT22;4247;48.550;8.822;2023-06-01T07:15:24;19.80;84.50
8420;DHT22;4247;48.550;8.822;2023-06-01T07:17:51;19.80;83.00
8420;DHT22;4247;48.550;8.822;2023-06-01T07:20:18;19.90;83.40
8420;DHT22;4247;48.550;8.822;2023-06-01T07:22:45;20.00;85.30
8420;DHT22;4247;48.550;8.822;2023-06-01T07:25:13;20.20;83.40
8420;DHT22;4247;48.550;8.822;2023-06-01T07:27:41;20.40;82.80
8420;DHT22;4247;48.550;8.822;2023-06-01T07:30:09;20.60;82.00
8420;DHT22;4247;48.550;8.822;2023-06-01T07:32:37;20.80;82.50
8420;DHT22;4247;48.550;8.822;2023-06-01T07:35:05;21.00;81.70
8420;DHT22;4247;48.550;8.822;2023-06-01T07:37:33;21.30;80.30
8420;DHT22;4247;48.550;8.822;2023-06-01T07:40:00;21.50;81.00
8420;DHT22;4247;48.550;8.822;2023-06-01T07:42:26;21.70;80.90
8420;DHT22;4247;48.550;8.822;2023-06-01T07:44:56;22.10;80.70
8420;DHT22;4247;48.550;8.822;2023-06-01T07:47:22;22.20;78.30
8420;DHT22;4247;48.550;8.822;2023-06-01T07:49:50;22.50;78.70
8420;DHT22;4247;48.550;8.822;2023-06-01T07:52:17;22.80;77.40
8420;DHT22;4247;48.550;8.822;2023-06-01T07:54:44;23.00;78.40
8420;DHT22;4247;48.550;8.822;2023-06-01T07:57:10;23.20;77.20
8420;DHT22;4247;48.550;8.822;2023-06-01T07:59:37;23.40;77.70
8420;DHT22;4247;48.550;8.822;2023-06-01T08:02:05;23.40;75.80
8420;DHT22;4247;48.550;8.822;2023-06-01T08:04:32;23.70;77.30
8420;DHT22;4247;48.550;8.822;2023-06-01T08:06:59;23.80;76.00
8420;DHT22;4247;48.550;8.822;2023-06-01T08:09:28;24.00;76.70
8420;DHT22;4247;48.550;8.822;2023-06-01T08:11:55;24.00;75.90
8420;DHT22;4247;48.550;8.822;2023-06-01T08:14:22;23.90;74.80
8420;DHT22;4247;48.550;8.822;2023-06-01T08:16:49;24.10;75.20
8420;DHT22;4247;48.550;8.822;2023-06-01T08:19:18;24.10;74.70
8420;DHT22;4247;48.550;8.822;2023-06-01T08:21:44;23.80;74.10
8420;DHT22;4247;48.550;8.822;2023-06-01T08:24:12;23.90;76.20
8420;DHT22;4247;48.550;8.822;2023-06-01T08:26:39;24.00;76.30
8420;DHT22;4247;48.550;8.822;2023-06-01T08:29:06;24.10;75.70
8420;DHT22;4247;48.550;8.822;2023-06-01T08:31:33;23.90;77.40
8420;DHT22;4247;48.550;8.822;2023-06-01T08:33:59;23.90;76.10
8420;DHT22;4247;48.550;8.822;2023-06-01T08:36:28;23.90;77.80
8420;DHT22;4247;48.550;8.822;2023-06-01T08:38:54;23.90;77.40
8420;DHT22;4247;48.550;8.822;2023-06-01T08:41:26;23.90;76.40
8420;DHT22;4247;48.550;8.822;2023-06-01T08:44:00;23.90;76.50
8420;DHT22;4247;48.550;8.822;2023-06-01T08:46:30;23.80;77.10
8420;DHT22;4247;48.550;8.822;2023-06-01T08:48:59;23.80;78.60
8420;DHT22;4247;48.550;8.822;2023-06-01T08:51:27;23.80;77.90
8420;DHT22;4247;48.550;8.822;2023-06-01T08:53:57;23.70;77.10
8420;DHT22;4247;48.550;8.822;2023-06-01T08:56:24;23.50;77.60
8420;DHT22;4247;48.550;8.822;2023-06-01T08:58:54;23.40;77.40
8420;DHT22;4247;48.550;8.822;2023-06-01T09:01:22;23.40;78.50
8420;DHT22;4247;48.550;8.822;2023-06-01T09:03:51;23.30;77.90
8420;DHT22;4247;48.550;8.822;2023-06-01T09:06:18;23.50;78.90
8420;DHT22;4247;48.550;8.822;2023-06-01T09:08:46;23.40;78.30
8420;DHT22;4247;48.550;8.822;2023-06-01T09:11:13;23.40;79.50
8420;DHT22;4247;48.550;8.822;2023-06-01T09:13:40;23.50;77.90
8420;DHT22;4247;48.550;8.822;2023-06-01T09:16:07;23.60;79.00
8420;DHT22;4247;48.550;8.822;2023-06-01T09:18:34;23.70;79.80
8420;DHT22;4247;48.550;8.822;2023-06-01T09:21:11;23.60;79.50
8420;DHT22;4247;48.550;8.822;2023-06-01T09:23:38;23.70;79.30
8420;DHT22;4247;48.550;8.822;2023-06-01T09:26:07;23.60;78.70
8420;DHT22;4247;48.550;8.822;2023-06-01T09:28:56;23.60;78.70
8420;DHT22;4247;48.550;8.822;2023-06-01T09:31:40;23.60;77.10
8420;DHT22;4247;48.550;8.822;2023-06-01T09:34:07;23.70;78.60
8420;DHT22;4247;48.550;8.822;2023-06-01T09:36:35;23.60;78.80
8420;DHT22;4247;48.550;8.822;2023-06-01T09:39:03;23.60;78.60
8420;DHT22;4247;48.550;8.822;2023-06-01T09:41:51;23.70;77.60
8420;DHT22;4247;48.550;8.822;2023-06-01T09:44:25;23.80;77.20
8420;DHT22;4247;48.550;8.822;2023-06-01T09:46:53;23.80;78.00
8420;DHT22;4247;48.550;8.822;2023-06-01T09:49:22;23.90;79.90
8420;DHT22;4247;48.550;8.822;2023-06-01T09:51:50;24.10;77.60
8420;DHT22;4247;48.550;8.822;2023-06-01T09:54:27;24.10;78.00
8420;DHT22;4247;48.550;8.822;2023-06-01T09:56:56;24.20;78.50
8420;DHT22;4247;48.550;8.822;2023-06-01T09:59:25;24.20;75.10
8420;DHT22;4247;48.550;8.822;2023-06-01T10:01:55;24.10;73.20
8420;DHT22;4247;48.550;8.822;2023-06-01T10:04:24;24.10;72.80
8420;DHT22;4247;48.550;8.822;2023-06-01T10:06:53;24.10;72.90
8420;DHT22;4247;48.550;8.822;2023-06-01T10:09:21;24.10;74.40
8420;DHT22;4247;48.550;8.822;2023-06-01T10:11:51;24.20;74.80
8420;DHT22;4247;48.550;8.822;2023-06-01T10:14:21;24.20;75.10
8420;DHT22;4247;48.550;8.822;2023-06-01T10:16:48;24.20;74.00
8420;DHT22;4247;48.550;8.822;2023-06-01T10:19:17;24.10;74.30
8420;DHT22;4247;48.550;8.822;2023-06-01T10:21:44;24.10;73.70
8420;DHT22;4247;48.550;8.822;2023-06-01T10:24:12;24.20;74.40
8420;DHT22;4247;48.550;8.822;2023-06-01T10:26:43;24.20;72.40
8420;DHT22;4247;48.550;8.822;2023-06-01T10:29:11;24.20;71.50
8420;DHT22;4247;48.550;8.822;2023-06-01T10:31:41;24.20;71.80
8420;DHT22;4247;48.550;8.822;2023-06-01T10:34:09;24.30;71.40
8420;DHT22;4247;48.550;8.822;2023-06-01T10:37:10;24.40;71.40
8420;DHT22;4247;48.550;8.822;2023-06-01T10:39:37;24.40;71.60
8420;DHT22;4247;48.550;8.822;2023-06-01T10:42:38;24.50;70.90
8420;DHT22;4247;48.550;8.822;2023-06-01T10:48:11;24.40;69.50
8420;DHT22;4247;48.550;8.822;2023-06-01T10:50:39;24.50;71.70
8420;DHT22;4247;48.550;8.822;2023-06-01T10:53:26;24.40;72.40
8420;DHT22;4247;48.550;8.822;2023-06-01T10:56:21;24.40;72.90
8420;DHT22;4247;48.550;8.822;2023-06-01T10:59:10;24.20;71.20
8420;DHT22;4247;48.550;8.822;2023-06-01T11:01:38;24.30;71.30
8420;DHT22;4247;48.550;8.822;2023-06-01T11:04:07;24.40;71.20
8420;DHT22;4247;48.550;8.822;2023-06-01T11:06:35;24.40;70.00
8420;DHT22;4247;48.550;8.822;2023-06-01T11:09:04;24.40;70.80
8420;DHT22;4247;48.550;8.822;2023-06-01T11:12:00;24.30;69.80
8420;DHT22;4247;48.550;8.822;2023-06-01T11:14:28;24.30;68.50
8420;DHT22;4247;48.550;8.822;2023-06-01T11:17:26;24.40;68.80
8420;DHT22;4247;48.550;8.822;2023-06-01T11:19:59;24.30;67.40
8420;DHT22;4247;48.550;8.822;2023-06-01T11:22:32;24.20;69.80
8420;DHT22;4247;48.550;8.822;2023-06-01T11:25:03;24.30;70.20
8420;DHT22;4247;48.550;8.822;2023-06-01T11:27:30;24.40;70.40
8420;DHT22;4247;48.550;8.822;2023-06-01T11:29:57;24.40;69.70
8420;DHT22;4247;48.550;8.822;2023-06-01T11:32:26;24.50;70.70
8420;DHT22;4247;48.550;8.822;2023-06-01T11:34:52;24.40;66.50
8420;DHT22;4247;48.550;8.822;2023-06-01T11:37:22;24.30;66.00
8420;DHT22;4247;48.550;8.822;2023-06-01T11:39:50;24.20;68.10
8420;DHT22;4247;48.550;8.822;2023-06-01T11:42:19;24.20;68.90
8420;DHT22;4247;48.550;8.822;2023-06-01T11:44:57;24.20;69.10
8420;DHT22;4247;48.550;8.822;2023-06-01T11:47:27;24.20;68.50
8420;DHT22;4247;48.550;8.822;2023-06-01T11:49:55;24.10;69.30
8420;DHT22;4247;48.550;8.822;2023-06-01T11:52:23;24.20;70.10
8420;DHT22;4247;48.550;8.822;2023-06-01T11:54:50;24.20;69.60
8420;DHT22;4247;48.550;8.822;2023-06-01T11:57:18;24.20;70.40
8420;DHT22;4247;48.550;8.822;2023-06-01T11:59:46;24.20;70.00
8420;DHT22;4247;48.550;8.822;2023-06-01T12:02:17;24.30;72.00
8420;DHT22;4247;48.550;8.822;2023-06-01T12:04:54;24.40;69.60
8420;DHT22;4247;48.550;8.822;2023-06-01T12:07:24;24.30;70.00
8420;DHT22;4247;48.550;8.822;2023-06-01T12:09:52;24.40;70.70
8420;DHT22;4247;48.550;8.822;2023-06-01T12:12:20;24.30;68.10
8420;DHT22;4247;48.550;8.822;2023-06-01T12:14:48;24.20;67.50
8420;DHT22;4247;48.550;8.822;2023-06-01T12:17:15;24.20;67.20
8420;DHT22;4247;48.550;8.822;2023-06-01T12:19:45;24.20;68.90
8420;DHT22;4247;48.550;8.822;2023-06-01T12:22:13;24.30;69.50
8420;DHT22;4247;48.550;8.822;2023-06-01T12:24:41;24.20;67.80
8420;DHT22;4247;48.550;8.822;2023-06-01T12:27:13;24.20;68.70
8420;DHT22;4247;48.550;8.822;2023-06-01T12:29:42;24.30;68.30
8420;DHT22;4247;48.550;8.822;2023-06-01T12:32:09;24.30;70.50
8420;DHT22;4247;48.550;8.822;2023-06-01T12:34:37;24.40;68.90
8420;DHT22;4247;48.550;8.822;2023-06-01T12:37:12;24.40;67.00
8420;DHT22;4247;48.550;8.822;2023-06-01T12:39:40;24.40;66.30
8420;DHT22;4247;48.550;8.822;2023-06-01T12:42:07;24.40;67.30
8420;DHT22;4247;48.550;8.822;2023-06-01T12:44:35;24.40;67.60
8420;DHT22;4247;48.550;8.822;2023-06-01T12:47:02;24.40;68.90
8420;DHT22;4247;48.550;8.822;2023-06-01T12:49:29;24.30;66.10
8420;DHT22;4247;48.550;8.822;2023-06-01T12:51:56;24.20;66.50
8420;DHT22;4247;48.550;8.822;2023-06-01T12:54:22;24.20;64.80
8420;DHT22;4247;48.550;8.822;2023-06-01T12:56:51;24.20;66.00
8420;DHT22;4247;48.550;8.822;2023-06-01T12:59:18;24.20;66.20
8420;DHT22;4247;48.550;8.822;2023-06-01T13:01:44;24.20;66.10
8420;DHT22;4247;48.550;8.822;2023-06-01T13:04:13;24.20;66.70
8420;DHT22;4247;48.550;8.822;2023-06-01T13:06:40;24.30;68.80
8420;DHT22;4247;48.550;8.822;2023-06-01T13:09:06;24.30;67.50
8420;DHT22;4247;48.550;8.822;2023-06-01T13:11:33;24.30;66.60
8420;DHT22;4247;48.550;8.822;2023-06-01T13:14:01;24.30;67.50
8420;DHT22;4247;48.550;8.822;2023-06-01T13:16:28;24.30;66.50
8420;DHT22;4247;48.550;8.822;2023-06-01T13:18:55;24.20;66.10
8420;DHT22;4247;48.550;8.822;2023-06-01T13:21:22;24.30;67.40
8420;DHT22;4247;48.550;8.822;2023-06-01T13:23:48;24.30;67.10
8420;DHT22;4247;48.550;8.822;2023-06-01T13:26:15;24.20;67.10
8420;DHT22;4247;48.550;8.822;2023-06-01T13:28:42;24.20;68.50
8420;DHT22;4247;48.550;8.822;2023-06-01T13:31:10;24.20;68.10
8420;DHT22;4247;48.550;8.822;2023-06-01T13:33:37;24.20;67.00
8420;DHT22;4247;48.550;8.822;2023-06-01T13:36:04;24.20;65.90
8420;DHT22;4247;48.550;8.822;2023-06-01T13:38:31;24.20;66.40
8420;DHT22;4247;48.550;8.822;2023-06-01T13:40:58;24.10;66.30
8420;DHT22;4247;48.550;8.822;2023-06-01T13:43:25;24.10;65.40
8420;DHT22;4247;48.550;8.822;2023-06-01T13:45:52;24.00;65.70
8420;DHT22;4247;48.550;8.822;2023-06-01T13:48:20;24.00;65.80
8420;DHT22;4247;48.550;8.822;2023-06-01T13:50:46;24.00;66.30
8420;DHT22;4247;48.550;8.822;2023-06-01T13:53:13;24.00;65.50
8420;DHT22;4247;48.550;8.822;2023-06-01T13:55:40;24.00;66.10
8420;DHT22;4247;48.550;8.822;2023-06-01T13:58:06;24.10;68.10
8420;DHT22;4247;48.550;8.822;2023-06-01T14:00:33;24.10;67.20
8420;DHT22;4247;48.550;8.822;2023-06-01T14:03:00;24.10;68.30
8420;DHT22;4247;48.550;8.822;2023-06-01T14:05:28;24.10;66.30
8420;DHT22;4247;48.550;8.822;2023-06-01T14:07:55;24.10;65.70
8420;DHT22;4247;48.550;8.822;2023-06-01T14:10:21;24.10;65.20
8420;DHT22;4247;48.550;8.822;2023-06-01T14:12:48;24.00;65.90
8420;DHT22;4247;48.550;8.822;2023-06-01T14:15:15;24.10;66.00
8420;DHT22;4247;48.550;8.822;2023-06-01T14:17:42;24.10;66.30
8420;DHT22;4247;48.550;8.822;2023-06-01T14:20:09;24.10;66.10
8420;DHT22;4247;48.550;8.822;2023-06-01T14:22:37;24.10;64.10
8420;DHT22;4247;48.550;8.822;2023-06-01T14:25:05;24.00;63.60
8420;DHT22;4247;48.550;8.822;2023-06-01T14:27:32;24.00;63.70
8420;DHT22;4247;48.550;8.822;2023-06-01T14:29:59;24.00;64.00
8420;DHT22;4247;48.550;8.822;2023-06-01T14:32:28;24.00;63.10
8420;DHT22;4247;48.550;8.822;2023-06-01T14:34:55;24.00;64.90
8420;DHT22;4247;48.550;8.822;2023-06-01T14:37:22;24.10;65.70
8420;DHT22;4247;48.550;8.822;2023-06-01T14:39:50;24.10;67.10
8420;DHT22;4247;48.550;8.822;2023-06-01T14:42:17;24.20;63.90
8420;DHT22;4247;48.550;8.822;2023-06-01T14:44:44;24.20;61.70
8420;DHT22;4247;48.550;8.822;2023-06-01T14:47:10;24.10;63.00
8420;DHT22;4247;48.550;8.822;2023-06-01T14:49:37;24.10;63.40
8420;DHT22;4247;48.550;8.822;2023-06-01T14:52:04;24.10;62.00
8420;DHT22;4247;48.550;8.822;2023-06-01T14:54:31;24.00;61.30
8420;DHT22;4247;48.550;8.822;2023-06-01T14:56:59;24.00;61.40
8420;DHT22;4247;48.550;8.822;2023-06-01T14:59:26;24.00;62.60
8420;DHT22;4247;48.550;8.822;2023-06-01T15:01:53;24.00;62.50
8420;DHT22;4247;48.550;8.822;2023-06-01T15:04:20;24.10;63.70
8420;DHT22;4247;48.550;8.822;2023-06-01T15:06:46;24.10;61.40
8420;DHT22;4247;48.550;8.822;2023-06-01T15:09:13;24.10;63.50
8420;DHT22;4247;48.550;8.822;2023-06-01T15:11:40;24.00;60.90
8420;DHT22;4247;48.550;8.822;2023-06-01T15:14:08;24.00;61.50
8420;DHT22;4247;48.550;8.822;2023-06-01T15:16:34;24.00;60.70
8420;DHT22;4247;48.550;8.822;2023-06-01T15:19:01;24.00;61.00
8420;DHT22;4247;48.550;8.822;2023-06-01T15:21:28;23.90;61.00
8420;DHT22;4247;48.550;8.822;2023-06-01T15:23:55;24.00;61.90
8420;DHT22;4247;48.550;8.822;2023-06-01T15:26:21;23.90;61.70
8420;DHT22;4247;48.550;8.822;2023-06-01T15:28:48;24.00;64.60
8420;DHT22;4247;48.550;8.822;2023-06-01T15:31:16;24.00;61.90
8420;DHT22;4247;48.550;8.822;2023-06-01T15:33:43;24.00;60.90
8420;DHT22;4247;48.550;8.822;2023-06-01T15:36:10;24.00;63.70
8420;DHT22;4247;48.550;8.822;2023-06-01T15:38:37;24.10;62.00
8420;DHT22;4247;48.550;8.822;2023-06-01T15:41:06;24.10;62.40
8420;DHT22;4247;48.550;8.822;2023-06-01T15:43:35;24.10;61.50
8420;DHT22;4247;48.550;8.822;2023-06-01T15:46:02;24.10;62.50
8420;DHT22;4247;48.550;8.822;2023-06-01T15:48:30;24.10;61.50
8420;DHT22;4247;48.550;8.822;2023-06-01T15:50:57;24.10;61.90
8420;DHT22;4247;48.550;8.822;2023-06-01T15:53:24;24.10;61.20
8420;DHT22;4247;48.550;8.822;2023-06-01T15:55:50;24.10;60.60
8420;DHT22;4247;48.550;8.822;2023-06-01T15:58:17;24.00;60.90
8420;DHT22;4247;48.550;8.822;2023-06-01T16:00:44;24.00;61.10
8420;DHT22;4247;48.550;8.822;2023-06-01T16:03:11;24.10;61.30
8420;DHT22;4247;48.550;8.822;2023-06-01T16:05:38;24.00;59.60
8420;DHT22;4247;48.550;8.822;2023-06-01T16:08:05;24.00;60.10
8420;DHT22;4247;48.550;8.822;2023-06-01T16:10:33;23.90;61.90
8420;DHT22;4247;48.550;8.822;2023-06-01T16:13:00;23.90;61.80
8420;DHT22;4247;48.550;8.822;2023-06-01T16:15:26;24.00;61.20
8420;DHT22;4247;48.550;8.822;2023-06-01T16:17:53;24.00;61.40